Flight Track Log - Related Links

Times and Time Zones

All times are in EDT time to prevent confusion due to time zone crossing. See the FLG3729 flight status page for this flight to view local times or setup timezone preferences in your user account.

Time Position Orientation Groundspeed Altitude Reporting Facility
EDT Latitude Longitude Course Direction KTS MPH feet Rate Location/Type
Fri 06:00:25 AM 42.7736 -73.8064 304° West 174 200 1,200  Level Boston Center
Fri 06:00:55 AM 42.7964 -73.8181 339° North 166 191 2,100 1,846 Climbing Boston Center
Fri 06:01:56 AM 42.8311 -73.8756 309° West 209 241 4,000 2,067 Climbing Boston Center
Fri 06:02:54 AM 42.8719 -73.9444 309° West 244 281 6,200 2,492 Climbing Boston Center
Fri 06:03:54 AM 42.9106 -74.0133 307° West 252 290 8,900 2,450 Climbing Boston Center
Fri 06:04:00 AM 42.8465 -74.4122 283° West  Level FlightAware Approximate
Fri 06:04:54 AM 42.9531 -74.1108 301° West 264 304 11,100  Level Boston Center
Fri 06:05:00 AM 42.8680 -74.5361 304° West  Level FlightAware Approximate
Fri 06:05:54 AM 42.9639 -74.2161 278° West 291 335 12,500  Level Boston Center
Fri 06:06:54 AM 42.9783 -74.3528 278° West 333 383 14,100 1,500 Climbing Boston Center
Fri 06:07:54 AM 42.9908 -74.4697 278° West 343 395 15,500 1,500 Climbing Boston Center
Fri 06:08:54 AM 43.0069 -74.6150 279° West 354 407 17,100 1,350 Climbing Boston Center
Fri 06:09:54 AM 43.0172 -74.7289 277° West 349 402 18,200 1,150 Climbing Boston Center
Fri 06:10:54 AM 43.0331 -74.8658 279° West 349 402 19,400 1,100 Climbing Boston Center
Fri 06:11:54 AM 43.0428 -74.9942 276° West 349 402 20,400 1,050 Climbing Boston Center
Fri 06:12:54 AM 43.0564 -75.1311 278° West 354 407 21,500 800 Climbing Boston Center
Fri 06:13:54 AM 43.0717 -75.2797 278° West 354 407 22,000 500 Climbing Boston Center
Fri 06:14:54 AM 43.0867 -75.4197 278° West 361 415 22,500 500 Climbing Boston Center
Fri 06:15:54 AM 43.1017 -75.5656 278° West 378 435 23,000 500 Climbing Boston Center
Fri 06:16:54 AM 43.1164 -75.7086 278° West 384 442 23,500 500 Climbing Boston Center
Fri 06:17:54 AM 43.1286 -75.8572 276° West 389 448 24,000 550 Climbing Boston Center
Fri 06:18:54 AM 43.1408 -76.0031 277° West 389 448 24,600 628 Climbing Boston Center
Fri 06:20:46 AM 43.1547 -76.2597 274° West 392 451 25,800 698 Climbing Cleveland Center
Fri 06:21:46 AM 43.1433 -76.4031 264° West 392 451 26,600 650 Climbing Cleveland Center
Fri 06:22:46 AM 43.1297 -76.5489 263° West 392 451 27,100 500 Climbing Cleveland Center
Fri 06:23:46 AM 43.1183 -76.6978 264° West 392 451 27,600 450 Climbing Cleveland Center
Fri 06:24:46 AM 43.1022 -76.8467 262° West 392 451 28,000 200 Climbing Cleveland Center
Fri 06:25:46 AM 43.0903 -76.9953 264° West 392 451 28,000  Level Cleveland Center
Fri 06:26:46 AM 43.0761 -77.1494 263° West 397 457 28,000  Level Cleveland Center
Fri 06:27:46 AM 43.0619 -77.3067 263° West 409 471 28,000  Level Cleveland Center
Fri 06:28:46 AM 43.0475 -77.4636 263° West 419 482 28,000  Level Cleveland Center
Fri 06:29:46 AM 43.0331 -77.6236 263° West 424 488 28,000  Level Cleveland Center
Fri 06:30:46 AM 43.0183 -77.7833 263° West 429 494 28,000  Level Cleveland Center
Fri 06:31:46 AM 43.0031 -77.9400 262° West 429 494 28,000  Level Cleveland Center
Fri 06:32:46 AM 42.9842 -78.1197 262° West 429 494 28,000  Level Cleveland Center
Fri 06:33:46 AM 42.9686 -78.2764 262° West 429 494 28,000  Level Cleveland Center
Fri 06:34:46 AM 42.9508 -78.4389 262° West 429 494 28,000  Level Cleveland Center
Fri 06:35:46 AM 42.9372 -78.5981 263° West 429 494 28,000  Level Cleveland Center
Fri 06:36:46 AM 42.9147 -78.7575 259° West 429 494 28,000  Level Cleveland Center
Fri 06:37:46 AM 42.8922 -78.9169 259° West 429 494 28,000  Level Cleveland Center
Fri 06:38:46 AM 42.8672 -79.0761 258° West 429 494 28,000  Level Cleveland Center
Fri 06:39:46 AM 42.8442 -79.2353 259° West 429 494 28,000  Level Cleveland Center
Fri 06:40:46 AM 42.8208 -79.3972 259° West 429 494 28,000  Level Cleveland Center
Fri 06:41:46 AM 42.7994 -79.5561 260° West 429 494 28,000  Level Cleveland Center
Fri 06:42:46 AM 42.7739 -79.7178 258° West 434 499 28,000  Level Cleveland Center
Fri 06:43:46 AM 42.7539 -79.8792 260° West 434 499 28,000  Level Cleveland Center
Fri 06:44:46 AM 42.7425 -80.0489 265° West 434 499 28,000  Level Cleveland Center
Fri 06:45:46 AM 42.7369 -80.2128 267° West 440 506 28,000  Level Cleveland Center
Fri 06:46:46 AM 42.7289 -80.3711 266° West 440 506 28,000  Level Cleveland Center
Fri 06:47:46 AM 42.7228 -80.5381 267° West 440 506 28,000  Level Cleveland Center
Fri 06:48:46 AM 42.7144 -80.6989 266° West 440 506 28,000 -200 Level Cleveland Center
Fri 06:49:46 AM 42.7078 -80.8658 267° West 448 516 27,600 -750 Descending Cleveland Center
Fri 06:50:46 AM 42.6906 -81.0267 262° West 438 504 26,500 -1,200 Descending Cleveland Center
Fri 06:51:46 AM 42.6733 -81.1903 262° West 438 504 25,200 -1,250 Descending Cleveland Center
Fri 06:52:46 AM 42.6556 -81.3456 261° West 432 497 24,000 -600 Descending Cleveland Center
Fri 06:53:46 AM 42.6378 -81.4947 261° West 421 484 24,000  Level Cleveland Center
Fri 06:54:46 AM 42.6200 -81.6272 260° West 415 478 24,000 -650 Level Cleveland Center
Fri 06:55:46 AM 42.6019 -81.7819 261° West 415 478 22,700 -1,900 Descending Cleveland Center
Fri 06:56:46 AM 42.5836 -81.9283 260° West 409 471 20,200 -2,400 Descending Cleveland Center
Fri 06:57:46 AM 42.5672 -82.0661 261° West 399 459 17,900 -2,100 Descending Cleveland Center
Fri 06:58:46 AM 42.5489 -82.2064 260° West 387 445 16,000 -2,121 Descending Cleveland Center
Fri 06:59:25 AM 42.5367 -82.3133 261° West 357 411 14,400 -2,043 Descending Cleveland Center
Fri 07:00:20 AM 42.5228 -82.4200 260° West 335 386 12,800 -1,131 Descending Cleveland Center
Fri 07:01:27 AM 42.5058 -82.5519 260° West 292 336 12,100 -516 Descending Cleveland Center
Fri 07:02:28 AM 42.4686 -82.6492 243° Southwest 290 334 11,700 -1,082 Descending Cleveland Center
Fri 07:03:29 AM 42.4317 -82.7408 241° Southwest 283 326 9,900 -1,748 Descending Cleveland Center
Fri 07:04:35 AM 42.3964 -82.8436 245° Southwest 255 293 8,000 -1,748 Descending Cleveland Center
Fri 07:05:36 AM 42.4006 -82.9394 273° West 256 295 6,200 -983 Descending Cleveland Center
Fri 07:06:31 AM 42.3903 -83.0292 261° West 263 303 6,100 -310 Descending Cleveland Center
Fri 07:07:32 AM 42.3739 -83.1239 257° West 261 300 5,600 -934 Descending Cleveland Center
Fri 07:08:33 AM 42.3614 -83.2133 259° West 233 268 4,200 -1,377 Descending Cleveland Center

Login

Don't have an account? Register now (free) for customized features, flight alerts, and more!